Time;durP1;ratioP1;P1;durP2;ratioP2;P2;SDS_P1;SDS_P2;PMS_P1;PMS_P2;Temp;Humidity;BMP_temperature;BMP_pressure;BME280_temperature;BME280_humidity;BME280_pressure;Samples;Min_cycle;Max_cycle;Signal;HPM_P1;HPM_P2
2023/01/11 00:01:03;;;;;;;12.93;10.82;;;15.20;99.90;;;;;;4991606;28;20077;-66
2023/01/11 00:03:29;;;;;;;11.07;9.00;;;14.40;99.90;;;;;;4990312;28;20145;-66
2023/01/11 00:05:57;;;;;;;12.50;9.00;;;12.40;99.90;;;;;;4992783;28;20038;-66
2023/01/11 00:08:24;;;;;;;11.13;8.70;;;14.70;99.90;;;;;;4992552;28;20115;-66
2023/01/11 00:10:50;;;;;;;14.32;9.98;;;15.00;99.90;;;;;;4992408;28;20499;-66
2023/01/11 00:13:15;;;;;;;12.75;10.32;;;12.70;99.90;;;;;;4992566;28;20046;-66
2023/01/11 00:15:41;;;;;;;11.95;10.30;;;15.50;99.90;;;;;;4990852;28;20038;-66
2023/01/11 00:18:07;;;;;;;12.60;10.30;;;13.30;99.90;;;;;;4991959;28;20092;-66
2023/01/11 00:20:33;;;;;;;11.05;9.25;;;15.50;99.90;;;;;;4990545;28;20038;-66
2023/01/11 00:22:59;;;;;;;13.45;9.02;;;15.50;99.90;;;;;;4990341;28;20038;-66
2023/01/11 00:25:26;;;;;;;11.20;8.80;;;15.50;99.90;;;;;;4987492;28;20038;-66
2023/01/11 00:27:53;;;;;;;12.18;9.55;;;15.20;99.90;;;;;;4991103;28;20041;-66
2023/01/11 00:30:18;;;;;;;11.88;9.35;;;14.60;99.90;;;;;;4990134;28;20124;-66
2023/01/11 00:32:44;;;;;;;11.20;8.02;;;13.20;99.90;;;;;;4969252;28;20096;-66
2023/01/11 00:35:10;;;;;;;8.93;7.72;;;13.80;99.90;;;;;;4981998;28;20040;-66
2023/01/11 00:37:35;;;;;;;9.98;7.13;;;13.90;99.90;;;;;;4991298;28;20407;-66
2023/01/11 00:40:01;;;;;;;11.80;8.65;;;13.70;99.90;;;;;;4991043;28;20442;-66
2023/01/11 00:47:59;;;;;;;12.80;6.57;;;13.10;99.90;;;;;;4988036;28;20038;-66
2023/01/11 00:50:30;;;;;;;11.95;6.15;;;15.60;99.90;;;;;;4990175;28;20046;-66
2023/01/11 00:52:57;;;;;;;9.43;6.97;;;15.70;99.90;;;;;;4991765;28;20034;-66
2023/01/11 00:55:23;;;;;;;14.88;7.10;;;15.80;99.90;;;;;;4993512;28;20053;-66
2023/01/11 00:57:49;;;;;;;10.10;5.25;;;13.20;99.90;;;;;;4994774;28;20492;-66
2023/01/11 01:00:15;;;;;;;9.40;4.78;;;16.10;99.90;;;;;;4980962;28;20050;-66
2023/01/11 01:02:40;;;;;;;16.15;4.90;;;14.20;99.90;;;;;;4989509;28;20234;-66
2023/01/11 01:05:06;;;;;;;16.33;4.13;;;16.40;99.90;;;;;;4992897;28;20058;-66
2023/01/11 01:07:32;;;;;;;18.50;4.07;;;13.90;99.90;;;;;;4993795;28;20077;-66
2023/01/11 01:09:57;;;;;;;13.20;4.50;;;14.30;99.90;;;;;;4991184;28;20069;-66
2023/01/11 01:15:08;;;;;;;14.73;4.25;;;16.10;99.90;;;;;;4993729;28;20048;-67
2023/01/11 01:17:33;;;;;;;27.13;4.28;;;14.10;99.90;;;;;;4992987;28;20205;-66
2023/01/11 01:19:59;;;;;;;17.45;3.92;;;16.80;99.90;;;;;;4994851;28;20077;-66
2023/01/11 01:22:24;;;;;;;16.20;5.00;;;16.50;99.90;;;;;;4992132;28;20042;-66
2023/01/11 01:24:50;;;;;;;15.00;4.07;;;16.50;99.90;;;;;;4990433;28;20038;-66
2023/01/11 01:27:16;;;;;;;28.02;5.00;;;14.90;99.90;;;;;;4990966;28;20648;-66
2023/01/11 01:29:43;;;;;;;16.52;4.10;;;14.60;99.90;;;;;;4994964;28;20049;-66
2023/01/11 01:32:08;;;;;;;19.70;4.35;;;15.20;99.90;;;;;;4994273;28;20061;-66
2023/01/11 01:34:36;;;;;;;17.80;4.03;;;16.30;99.90;;;;;;4992229;28;20078;-66
2023/01/11 01:37:03;;;;;;;16.50;3.92;;;14.90;99.90;;;;;;4991648;28;20128;-66
2023/01/11 01:39:28;;;;;;;17.23;4.55;;;16.00;99.90;;;;;;4992695;28;20133;-67
2023/01/11 01:41:54;;;;;;;20.27;4.25;;;16.30;99.90;;;;;;4992009;28;20141;-66
2023/01/11 01:44:56;;;;;;;14.85;3.63;;;16.40;99.90;;;;;;4991624;28;20474;-66
2023/01/11 01:47:50;;;;;;;14.55;3.90;;;15.00;99.90;;;;;;4987559;28;20033;-66
2023/01/11 01:50:18;;;;;;;17.98;4.53;;;16.60;99.90;;;;;;4974162;28;20035;-66
2023/01/11 01:52:48;;;;;;;19.88;4.43;;;15.20;99.90;;;;;;4981100;28;20488;-66
2023/01/11 01:55:19;;;;;;;30.48;3.67;;;15.90;99.90;;;;;;4992423;28;20049;-67
2023/01/11 01:57:45;;;;;;;23.33;4.85;;;16.00;99.90;;;;;;4994455;28;20046;-67
2023/01/11 02:00:12;;;;;;;22.33;4.50;;;16.20;99.90;;;;;;4993234;28;20088;-66
2023/01/11 02:02:39;;;;;;;26.80;5.35;;;16.20;99.90;;;;;;4993316;28;20053;-66
2023/01/11 02:05:07;;;;;;;21.40;4.40;;;14.10;99.90;;;;;;4992208;28;20057;-66
2023/01/11 02:07:36;;;;;;;23.65;4.93;;;16.60;99.90;;;;;;4992650;28;20065;-66
2023/01/11 02:10:07;;;;;;;25.15;4.68;;;15.30;99.90;;;;;;4993152;28;20480;-66
2023/01/11 02:12:53;;;;;;;18.38;4.70;;;16.50;99.90;;;;;;4989818;28;20038;-67
2023/01/11 02:15:21;;;;;;;20.02;5.15;;;14.50;99.90;;;;;;4990124;28;20038;-67
2023/01/11 02:17:46;;;;;;;24.80;5.28;;;14.50;99.90;;;;;;4990876;28;20049;-67
2023/01/11 02:20:34;;;;;;;28.83;4.63;;;16.30;99.90;;;;;;4991780;28;20404;-66
2023/01/11 02:23:15;;;;;;;27.27;4.53;;;14.80;99.90;;;;;;4990990;28;20057;-66
2023/01/11 02:26:14;;;;;;;31.95;5.47;;;14.20;99.90;;;;;;4990061;28;20046;-66
2023/01/11 02:29:09;;;;;;;24.42;5.00;;;16.40;99.90;;;;;;4991022;28;20042;-67
2023/01/11 02:31:53;;;;;;;31.58;5.97;;;16.20;99.90;;;;;;4990041;28;20034;-66
2023/01/11 02:34:30;;;;;;;25.75;5.30;;;15.70;99.90;;;;;;4991074;28;20117;-67
2023/01/11 02:37:23;;;;;;;24.45;5.30;;;14.80;99.90;;;;;;4989055;28;20129;-67
2023/01/11 02:40:06;;;;;;;21.13;4.40;;;16.00;99.90;;;;;;4985696;28;20031;-67
2023/01/11 02:45:58;;;;;;;31.20;6.65;;;16.30;99.90;;;;;;4991483;28;20046;-67
2023/01/11 02:48:35;;;;;;;31.08;6.50;;;14.50;99.90;;;;;;4992291;28;20181;-67
2023/01/11 02:51:04;;;;;;;39.63;6.72;;;14.40;85.60;;;;;;4991897;28;20066;-67
2023/01/11 02:53:42;;;;;;;41.50;8.05;;;14.50;1.00;;;;;;4991451;28;20042;-67
2023/01/11 02:56:17;;;;;;;41.00;7.70;;;15.70;99.90;;;;;;4989261;28;20038;-67
2023/01/11 02:58:46;;;;;;;38.80;6.60;;;14.30;99.90;;;;;;4991785;28;20046;-67
2023/01/11 03:01:13;;;;;;;45.20;7.72;;;16.10;99.90;;;;;;4988735;28;20458;-67
2023/01/11 03:03:38;;;;;;;54.63;8.90;;;15.00;99.90;;;;;;4990524;28;20054;-66
2023/01/11 03:06:12;;;;;;;42.72;7.80;;;14.90;1.00;;;;;;4991767;28;20498;-67
2023/01/11 03:08:43;;;;;;;67.43;9.60;;;14.30;1.00;;;;;;4991286;28;20389;-67
2023/01/11 03:12:50;;;;;;;53.45;9.02;;;14.10;1.00;;;;;;4991285;28;20034;-67
2023/01/11 03:14:19;;;;;;;50.33;7.88;;;16.30;1.00;;;;;;4991170;28;20120;-67
2023/01/11 03:16:56;;;;;;;46.33;7.57;;;16.00;99.90;;;;;;4991068;28;20030;-67
2023/01/11 03:19:51;;;;;;;62.17;10.00;;;14.80;99.90;;;;;;4973020;28;20500;-67
2023/01/11 03:22:44;;;;;;;65.78;9.48;;;14.20;99.90;;;;;;4990605;28;20122;-67
2023/01/11 03:25:29;;;;;;;38.53;7.28;;;14.00;1.00;;;;;;4992855;28;20031;-67
2023/01/11 03:28:04;;;;;;;46.95;6.85;;;14.10;99.90;;;;;;4990286;28;20168;-67
2023/01/11 03:30:55;;;;;;;42.70;7.13;;;14.40;99.90;;;;;;4986703;28;20053;-67
2023/01/11 03:33:35;;;;;;;44.33;7.97;;;15.60;99.90;;;;;;4990844;28;20304;-67
2023/01/11 03:36:23;;;;;;;51.45;9.35;;;14.90;1.00;;;;;;4992381;28;20097;-67
2023/01/11 03:39:14;;;;;;;55.67;9.25;;;15.70;99.90;;;;;;4971160;28;20047;-67
2023/01/11 03:41:42;;;;;;;64.10;8.20;;;14.50;99.90;;;;;;4990514;28;20045;-66
2023/01/11 03:44:11;;;;;;;41.90;7.63;;;15.00;99.90;;;;;;4987375;28;20078;-67
2023/01/11 03:46:43;;;;;;;60.28;9.10;;;16.00;99.90;;;;;;4989616;28;20133;-66
2023/01/11 03:49:15;;;;;;;72.70;9.90;;;14.20;99.90;;;;;;4992287;28;20045;-66
2023/01/11 03:51:43;;;;;;;60.05;8.60;;;15.40;99.90;;;;;;4991624;28;20038;-66
2023/01/11 03:54:13;;;;;;;59.17;9.38;;;16.00;99.90;;;;;;4989002;28;20042;-67
2023/01/11 03:57:06;;;;;;;58.33;8.60;;;15.90;99.90;;;;;;4990593;28;20069;-67
2023/01/11 03:59:33;;;;;;;45.72;7.60;;;15.20;99.90;;;;;;4962387;28;20082;-67
2023/01/11 04:01:59;;;;;;;39.55;7.00;;;14.50;88.00;;;;;;4991381;28;20583;-67
2023/01/11 04:04:25;;;;;;;44.50;8.18;;;14.60;1.00;;;;;;4991222;28;20125;-67
2023/01/11 04:06:50;;;;;;;28.33;5.90;;;14.80;99.90;;;;;;4990449;28;20074;-67
2023/01/11 04:09:16;;;;;;;32.03;5.90;;;14.90;96.30;;;;;;4990226;28;20128;-67
2023/01/11 04:11:41;;;;;;;33.95;6.30;;;15.10;1.00;;;;;;4992455;28;20038;-67
2023/01/11 04:14:07;;;;;;;42.83;6.65;;;14.30;1.00;;;;;;4992554;28;20031;-66
2023/01/11 04:16:33;;;;;;;42.25;6.70;;;14.30;99.90;;;;;;4992054;28;20451;-67
2023/01/11 04:18:58;;;;;;;48.83;7.63;;;15.10;99.90;;;;;;4987312;28;20540;-67
2023/01/11 04:21:24;;;;;;;37.75;6.60;;;14.80;99.90;;;;;;4990904;28;20129;-67
2023/01/11 04:23:49;;;;;;;50.88;7.40;;;15.70;52.20;;;;;;4990992;28;20077;-67
2023/01/11 04:26:16;;;;;;;43.55;7.05;;;15.40;8.60;;;;;;4985847;28;20042;-67
2023/01/11 04:28:42;;;;;;;56.40;8.32;;;15.00;1.00;;;;;;4991441;28;20038;-67
2023/01/11 04:31:08;;;;;;;50.65;7.65;;;14.30;99.90;;;;;;4976796;28;20034;-67
2023/01/11 04:33:34;;;;;;;50.10;7.72;;;15.40;99.90;;;;;;4986429;28;20031;-67
2023/01/11 04:36:07;;;;;;;43.22;7.35;;;14.10;1.00;;;;;;4983670;28;20096;-67
2023/01/11 04:38:33;;;;;;;47.90;6.95;;;15.30;1.00;;;;;;4983670;28;20043;-67
2023/01/11 04:43:43;;;;;;;32.40;5.18;;;14.40;1.00;;;;;;4993532;28;20085;-67
2023/01/11 04:46:09;;;;;;;29.45;5.38;;;14.60;99.90;;;;;;4988007;28;20441;-67
2023/01/11 04:48:38;;;;;;;34.13;5.45;;;14.60;54.10;;;;;;4993578;28;20041;-67
2023/01/11 04:51:05;;;;;;;33.22;5.13;;;15.00;1.00;;;;;;4979719;28;20098;-67
2023/01/11 04:53:30;;;;;;;29.38;5.43;;;14.30;99.90;;;;;;4984843;28;20046;-67
2023/01/11 04:56:00;;;;;;;28.23;4.43;;;14.70;44.80;;;;;;4991637;28;20094;-71
2023/01/11 04:58:25;;;;;;;21.40;4.25;;;14.20;99.90;;;;;;4985995;28;20507;-67
2023/01/11 05:00:51;;;;;;;27.83;4.60;;;14.30;1.00;;;;;;5010375;28;20039;-67
2023/01/11 05:03:16;;;;;;;26.20;4.97;;;14.10;99.90;;;;;;4993724;28;20062;-67
2023/01/11 05:05:42;;;;;;;26.83;4.32;;;13.60;99.90;;;;;;4992049;28;20078;-71
2023/01/11 05:08:07;;;;;;;27.25;3.85;;;14.00;99.90;;;;;;4990586;28;20106;-67
2023/01/11 05:10:33;;;;;;;29.45;4.47;;;14.30;99.90;;;;;;4986360;28;20034;-67
2023/01/11 05:12:58;;;;;;;23.77;5.05;;;13.60;99.90;;;;;;4990576;28;20532;-67
2023/01/11 05:15:24;;;;;;;24.30;4.75;;;13.80;88.70;;;;;;4975565;28;20527;-67
2023/01/11 05:17:49;;;;;;;28.60;3.83;;;14.30;48.10;;;;;;4989322;28;20046;-69
2023/01/11 05:20:15;;;;;;;41.70;5.13;;;13.80;1.00;;;;;;4993290;28;20053;-67
2023/01/11 05:22:41;;;;;;;42.95;5.90;;;13.60;50.80;;;;;;4994430;28;20049;-70
2023/01/11 05:25:07;;;;;;;49.85;7.57;;;13.50;99.90;;;;;;4997655;28;20042;-69
2023/01/11 05:27:32;;;;;;;61.67;8.05;;;14.10;99.90;;;;;;4993891;28;20035;-69
2023/01/11 05:29:58;;;;;;;45.65;6.90;;;13.60;99.90;;;;;;4993339;28;20037;-70
2023/01/11 05:32:23;;;;;;;60.65;8.80;;;13.60;1.00;;;;;;4994107;28;20046;-69
2023/01/11 05:34:49;;;;;;;50.38;8.27;;;13.40;1.00;;;;;;4993950;28;20046;-70
2023/01/11 05:37:14;;;;;;;58.17;7.57;;;14.90;97.10;;;;;;4993845;28;20038;-70
2023/01/11 05:39:40;;;;;;;48.50;7.28;;;13.70;99.90;;;;;;4992077;28;20132;-70
2023/01/11 05:42:06;;;;;;;39.47;7.10;;;14.90;99.90;;;;;;4993400;28;20389;-69
2023/01/11 05:47:15;;;;;;;40.05;6.80;;;14.50;44.70;;;;;;4993996;28;20052;-70
2023/01/11 05:49:41;;;;;;;44.03;7.15;;;14.80;1.00;;;;;;4994689;28;20113;-69
2023/01/11 05:52:06;;;;;;;37.10;6.50;;;14.70;99.90;;;;;;4993617;28;20070;-69
2023/01/11 05:54:32;;;;;;;29.13;5.30;;;14.00;1.00;;;;;;4993318;28;20053;-69
2023/01/11 05:56:57;;;;;;;29.90;4.80;;;14.00;1.00;;;;;;4993496;28;20057;-69
2023/01/11 05:59:25;;;;;;;26.05;4.55;;;14.00;99.90;;;;;;4993201;28;20043;-70
2023/01/11 06:01:51;;;;;;;29.15;3.67;;;14.30;99.90;;;;;;4993238;28;20046;-69
2023/01/11 06:04:16;;;;;;;28.02;4.05;;;13.80;99.90;;;;;;4993132;28;20116;-69
2023/01/11 06:06:42;;;;;;;31.77;4.88;;;14.00;99.90;;;;;;4993460;28;20491;-69
2023/01/11 06:09:07;;;;;;;17.05;3.40;;;13.90;89.30;;;;;;4992875;28;20030;-69
2023/01/11 06:11:33;;;;;;;24.88;3.80;;;13.90;1.00;;;;;;4991641;28;20145;-69
2023/01/11 06:13:58;;;;;;;19.70;4.22;;;14.10;1.00;;;;;;4974372;28;20046;-69
2023/01/11 06:16:24;;;;;;;30.35;4.80;;;13.70;1.00;;;;;;5008991;28;20038;-70
2023/01/11 06:18:51;;;;;;;24.50;3.67;;;14.10;99.90;;;;;;4976211;28;20120;-69
2023/01/11 06:21:17;;;;;;;28.83;5.15;;;13.90;99.90;;;;;;4992360;28;20046;-69
2023/01/11 06:23:46;;;;;;;23.95;4.88;;;14.10;99.90;;;;;;4992678;28;20096;-69
2023/01/11 06:26:15;;;;;;;30.08;5.90;;;13.40;1.00;;;;;;4973444;28;20039;-70
2023/01/11 06:28:41;;;;;;;26.45;4.63;;;13.50;1.00;;;;;;4978644;28;20399;-70
2023/01/11 06:31:07;;;;;;;30.92;5.47;;;14.10;1.00;;;;;;4984526;28;20035;-69
2023/01/11 06:33:33;;;;;;;32.22;5.40;;;13.70;1.00;;;;;;4973640;28;20476;-69
2023/01/11 06:36:05;;;;;;;37.53;5.53;;;13.40;1.00;;;;;;4975674;28;20173;-70
2023/01/11 06:38:30;;;;;;;36.47;5.28;;;13.70;1.00;;;;;;4992387;28;20048;-70
2023/01/11 06:40:59;;;;;;;29.50;4.88;;;13.60;1.00;;;;;;4976589;28;20406;-69
2023/01/11 06:43:25;;;;;;;26.73;4.65;;;14.00;1.00;;;;;;4975274;28;20034;-69
2023/01/11 06:45:51;;;;;;;26.75;3.90;;;14.00;1.00;;;;;;4991157;28;20049;-69
2023/01/11 06:48:17;;;;;;;22.05;3.63;;;14.10;1.00;;;;;;4991947;28;20412;-70
2023/01/11 06:50:47;;;;;;;26.40;4.20;;;13.90;99.90;;;;;;4992884;28;20471;-69
2023/01/11 06:53:12;;;;;;;24.23;4.30;;;14.00;99.90;;;;;;5008684;28;20042;-69
2023/01/11 06:55:38;;;;;;;27.38;3.75;;;14.20;99.90;;;;;;4976201;28;20049;-69
2023/01/11 06:58:04;;;;;;;22.90;4.05;;;14.00;99.90;;;;;;4992257;28;20465;-69
2023/01/11 07:00:29;;;;;;;25.10;3.95;;;14.00;99.90;;;;;;4991040;28;20387;-69
2023/01/11 07:02:55;;;;;;;21.33;3.42;;;13.90;99.90;;;;;;4991718;28;20073;-69
2023/01/11 07:05:20;;;;;;;24.63;3.85;;;14.00;99.90;;;;;;4992043;28;20093;-69
2023/01/11 07:07:46;;;;;;;14.02;2.72;;;13.70;99.90;;;;;;4991777;28;20045;-70
2023/01/11 07:10:14;;;;;;;23.77;3.63;;;13.70;99.90;;;;;;4991635;28;20479;-70
2023/01/11 07:12:40;;;;;;;23.45;4.18;;;14.10;99.90;;;;;;4990340;28;20045;-70
2023/01/11 07:15:08;;;;;;;27.83;4.22;;;13.80;99.90;;;;;;4979987;28;20042;-69
2023/01/11 07:17:34;;;;;;;21.10;3.70;;;14.00;99.90;;;;;;4977184;28;20038;-69
2023/01/11 07:20:00;;;;;;;19.23;3.75;;;13.60;99.90;;;;;;4987466;28;20054;-69
2023/01/11 07:22:26;;;;;;;23.73;4.68;;;14.40;99.90;;;;;;4972603;28;20043;-69
2023/01/11 07:24:51;;;;;;;22.05;3.58;;;14.00;99.90;;;;;;4972671;28;20047;-69
2023/01/11 07:27:19;;;;;;;25.80;4.32;;;13.90;99.90;;;;;;4979850;28;20109;-69
2023/01/11 07:29:45;;;;;;;26.42;4.10;;;13.90;95.70;;;;;;4989360;28;20129;-69
2023/01/11 07:32:10;;;;;;;28.27;4.45;;;13.70;48.30;;;;;;4996505;28;20045;-69
2023/01/11 07:34:36;;;;;;;23.20;4.10;;;13.80;1.00;;;;;;4991141;28;20113;-69
2023/01/11 07:37:02;;;;;;;19.70;3.97;;;13.70;1.00;;;;;;4991443;28;20065;-69
2023/01/11 07:39:28;;;;;;;22.35;4.28;;;13.40;1.00;;;;;;5006451;28;20060;-69
2023/01/11 07:44:38;;;;;;;25.80;3.97;;;13.20;1.00;;;;;;4990344;28;20485;-70
2023/01/11 07:47:03;;;;;;;25.95;3.97;;;13.20;1.00;;;;;;4992970;28;20488;-70
2023/01/11 07:49:29;;;;;;;31.02;4.80;;;13.50;1.00;;;;;;4990546;28;20026;-70
2023/01/11 07:51:54;;;;;;;31.88;4.75;;;13.40;1.00;;;;;;4992176;28;20042;-69
2023/01/11 07:54:20;;;;;;;25.20;4.68;;;13.40;99.90;;;;;;4999544;28;20095;-70
2023/01/11 07:56:46;;;;;;;29.60;5.40;;;13.10;99.90;;;;;;5001248;28;20073;-70
2023/01/11 07:59:11;;;;;;;24.63;4.38;;;13.20;1.00;;;;;;4990474;28;20095;-69
2023/01/11 08:01:37;;;;;;;25.50;4.53;;;13.00;1.00;;;;;;4990817;28;20039;-70
2023/01/11 08:04:03;;;;;;;24.95;4.18;;;13.30;1.00;;;;;;4977668;28;20050;-70
2023/01/11 08:06:29;;;;;;;23.98;4.15;;;13.10;1.00;;;;;;4993750;28;20038;-70
2023/01/11 08:08:55;;;;;;;19.25;4.20;;;13.30;99.90;;;;;;4994739;28;20039;-70
2023/01/11 08:16:49;;;;;;;21.73;4.07;;;12.90;99.90;;;;;;4993702;28;20100;-70
2023/01/11 08:19:15;;;;;;;23.73;4.05;;;12.90;99.90;;;;;;4978433;28;20539;-70
2023/01/11 08:21:43;;;;;;;26.10;3.78;;;12.90;99.90;;;;;;4978964;28;20050;-70
2023/01/11 08:24:09;;;;;;;22.08;4.15;;;13.50;99.90;;;;;;4994567;28;20034;-70
2023/01/11 08:26:35;;;;;;;23.80;4.28;;;12.90;99.90;;;;;;4994146;28;20049;-69
2023/01/11 08:29:00;;;;;;;31.15;4.22;;;12.60;99.90;;;;;;4994471;28;20038;-70
2023/01/11 08:31:26;;;;;;;24.73;4.10;;;13.00;99.90;;;;;;4994317;28;20032;-69
2023/01/11 08:33:51;;;;;;;28.88;4.25;;;13.00;99.90;;;;;;4993724;28;20042;-69
2023/01/11 08:36:17;;;;;;;16.83;3.38;;;13.00;99.90;;;;;;4980363;28;20039;-69
2023/01/11 08:38:43;;;;;;;19.05;2.78;;;13.50;99.90;;;;;;4994388;28;20046;-71
2023/01/11 08:41:13;;;;;;;25.42;3.83;;;12.90;1.00;;;;;;4991313;28;20034;-70
2023/01/11 08:43:40;;;;;;;26.00;4.03;;;12.70;1.00;;;;;;4993626;28;20066;-70
2023/01/11 08:46:07;;;;;;;18.27;3.83;;;13.00;1.00;;;;;;4994087;28;20034;-70
2023/01/11 08:48:33;;;;;;;19.77;3.78;;;13.20;1.00;;;;;;4994533;28;20483;-70
2023/01/11 08:50:58;;;;;;;31.50;4.38;;;13.10;1.00;;;;;;4997027;28;20132;-70
2023/01/11 08:53:24;;;;;;;22.48;4.00;;;12.60;99.90;;;;;;5007928;28;20062;-69
2023/01/11 08:55:50;;;;;;;22.40;4.22;;;12.90;99.90;;;;;;5009999;28;20097;-71
2023/01/11 08:58:16;;;;;;;20.55;4.30;;;12.70;1.00;;;;;;4993385;28;20077;-69
2023/01/11 09:00:42;;;;;;;18.25;3.15;;;13.10;99.90;;;;;;4993687;28;20069;-70
2023/01/11 09:03:11;;;;;;;18.08;3.20;;;13.10;99.90;;;;;;4994995;28;20045;-69
2023/01/11 09:05:40;;;;;;;23.75;4.03;;;13.00;99.90;;;;;;4992626;28;20046;-69
2023/01/11 09:08:07;;;;;;;17.42;3.60;;;13.50;99.90;;;;;;4994089;28;20038;-70
2023/01/11 09:10:33;;;;;;;23.23;3.88;;;13.50;99.90;;;;;;4994291;28;20068;-70
2023/01/11 09:12:58;;;;;;;21.15;3.75;;;13.30;99.90;;;;;;4977522;28;20535;-70
2023/01/11 09:15:25;;;;;;;25.38;4.45;;;13.20;99.90;;;;;;4992444;28;20080;-71
2023/01/11 09:17:51;;;;;;;19.38;3.90;;;13.30;99.90;;;;;;4988615;28;20108;-70
2023/01/11 09:20:18;;;;;;;28.63;4.30;;;13.60;99.90;;;;;;4993853;28;20038;-70
2023/01/11 09:22:49;;;;;;;14.77;3.08;;;13.70;99.90;;;;;;4993352;28;20075;-70
2023/01/11 09:25:15;;;;;;;21.05;3.20;;;13.40;99.90;;;;;;4994012;28;20053;-70
2023/01/11 09:27:44;;;;;;;20.25;3.88;;;13.50;99.90;;;;;;4993824;28;20049;-71
2023/01/11 09:30:12;;;;;;;24.23;4.43;;;13.10;99.90;;;;;;4993772;28;20046;-71
2023/01/11 09:32:37;;;;;;;19.73;4.28;;;13.30;99.90;;;;;;4992992;28;20038;-70
2023/01/11 09:35:04;;;;;;;23.70;3.85;;;13.30;99.90;;;;;;4996997;28;20038;-70
2023/01/11 09:37:30;;;;;;;23.00;4.10;;;13.60;99.90;;;;;;4994009;28;20551;-70
2023/01/11 09:40:00;;;;;;;23.48;4.30;;;13.50;99.90;;;;;;4995818;28;20037;-71
2023/01/11 09:42:30;;;;;;;27.92;3.85;;;13.60;99.90;;;;;;5013822;28;20047;-70
2023/01/11 09:45:04;;;;;;;27.27;4.60;;;13.60;99.90;;;;;;4994895;28;20578;-71
2023/01/11 09:47:42;;;;;;;35.65;4.70;;;13.60;99.90;;;;;;4993387;28;20042;-70
2023/01/11 09:50:28;;;;;;;24.02;3.85;;;13.70;99.90;;;;;;4993694;28;20053;-71
2023/01/11 09:52:57;;;;;;;25.55;4.47;;;13.90;99.90;;;;;;4993546;28;20129;-70
2023/01/11 09:55:34;;;;;;;36.75;5.70;;;13.70;99.90;;;;;;4998217;28;20046;-71
2023/01/11 09:58:27;;;;;;;28.27;4.90;;;13.90;99.90;;;;;;5006013;28;20045;-71
2023/01/11 10:01:13;;;;;;;23.60;4.95;;;14.00;99.90;;;;;;5012899;28;20041;-71
2023/01/11 10:04:02;;;;;;;;;;;13.90;95.30;;;;;;4993778;28;20046;-71
2023/01/11 10:07:11;;;;;;;33.00;5.75;;;13.90;63.30;;;;;;4996216;28;19921;-71
2023/01/11 10:10:07;;;;;;;22.38;4.53;;;13.50;49.90;;;;;;4994566;28;20432;-71
2023/01/11 10:13:04;;;;;;;27.23;4.78;;;13.70;40.10;;;;;;4996023;28;20061;-70
2023/01/11 10:15:39;;;;;;;;;;;13.90;80.30;;;;;;4992300;28;20050;-71
2023/01/11 10:18:42;;;;;;;25.33;4.88;;;13.70;46.10;;;;;;4994352;28;20364;-71
2023/01/11 10:21:15;;;;;;;30.90;5.03;;;13.70;46.70;;;;;;4993259;28;20075;-70
2023/01/11 10:23:54;;;;;;;26.38;4.65;;;13.80;3.40;;;;;;4992818;28;20050;-71
2023/01/11 10:26:38;;;;;;;27.77;3.95;;;14.10;1.00;;;;;;4992429;28;20034;-70
2023/01/11 10:32:08;;;;;;;33.85;6.85;;;14.10;1.00;;;;;;4992539;28;20113;-71
2023/01/11 10:38:06;;;;;;;38.97;5.47;;;14.00;1.00;;;;;;4992600;28;20502;-71
2023/01/11 10:41:01;;;;;;;31.80;5.28;;;14.00;1.00;;;;;;4992558;28;20038;-71
2023/01/11 10:43:29;;;;;;;18.65;4.60;;;14.10;1.00;;;;;;4976222;28;20057;-70
2023/01/11 10:46:20;;;;;;;29.10;4.38;;;14.00;1.00;;;;;;4992752;28;20073;-70
2023/01/11 10:48:46;;;;;;;27.05;4.88;;;14.20;1.00;;;;;;4987331;28;20038;-71
2023/01/11 10:51:28;;;;;;;27.75;5.05;;;14.10;1.00;;;;;;4975766;28;20039;-68
2023/01/11 10:54:00;;;;;;;29.00;4.40;;;14.00;1.00;;;;;;4995150;28;20120;-70
2023/01/11 10:56:44;;;;;;;22.85;4.82;;;14.20;1.00;;;;;;5006253;28;20488;-71
2023/01/11 10:59:23;;;;;;;26.10;4.70;;;13.90;1.00;;;;;;4992692;28;20534;-71
2023/01/11 11:02:15;;;;;;;30.02;5.30;;;14.00;99.90;;;;;;4997408;28;20049;-71
2023/01/11 11:04:49;;;;;;;27.20;4.85;;;14.00;99.90;;;;;;4987565;28;20173;-69
2023/01/11 11:07:40;;;;;;;35.00;6.75;;;14.40;99.90;;;;;;4992226;28;20034;-70
2023/01/11 11:10:13;;;;;;;37.53;6.90;;;14.20;99.90;;;;;;4992335;28;20034;-71
2023/01/11 11:13:03;;;;;;;28.95;4.97;;;14.00;99.90;;;;;;4994354;28;20037;-70
2023/01/11 11:15:53;;;;;;;25.85;5.95;;;14.10;99.90;;;;;;4995968;28;20061;-71
2023/01/11 11:18:19;;;;;;;33.58;5.45;;;14.20;99.90;;;;;;4986851;28;20057;-70
2023/01/11 11:20:45;;;;;;;34.60;5.68;;;14.10;99.90;;;;;;4991970;28;20410;-71
2023/01/11 11:23:17;;;;;;;25.33;5.10;;;14.10;99.90;;;;;;4991856;28;20053;-70
2023/01/11 11:25:50;;;;;;;35.80;6.07;;;14.10;99.90;;;;;;4991813;28;20042;-70
2023/01/11 11:28:21;;;;;;;23.80;5.13;;;14.10;99.90;;;;;;5001196;28;20057;-71
2023/01/11 11:30:51;;;;;;;19.15;3.97;;;14.10;99.90;;;;;;4991490;28;20038;-71
2023/01/11 11:33:34;;;;;;;30.30;5.03;;;14.10;99.90;;;;;;4991668;28;20278;-71
2023/01/11 11:36:03;;;;;;;30.00;5.00;;;14.00;99.90;;;;;;4992087;28;20054;-70
2023/01/11 11:38:31;;;;;;;25.00;4.45;;;14.00;99.90;;;;;;4991687;28;20045;-70
2023/01/11 11:41:05;;;;;;;33.22;5.57;;;13.80;99.90;;;;;;4991643;28;20046;-70
2023/01/11 11:43:32;;;;;;;23.27;4.75;;;13.90;99.90;;;;;;4975381;28;20395;-70
2023/01/11 11:46:01;;;;;;;27.25;4.43;;;13.70;99.90;;;;;;4975419;28;20038;-70
2023/01/11 11:48:32;;;;;;;29.98;5.22;;;13.80;99.90;;;;;;5007590;28;20159;-70
2023/01/11 11:51:01;;;;;;;23.27;4.22;;;13.70;99.90;;;;;;4991496;28;20467;-70
2023/01/11 11:53:33;;;;;;;31.38;6.40;;;13.70;99.90;;;;;;4975126;28;20504;-70
2023/01/11 11:56:05;;;;;;;27.02;6.03;;;13.70;99.90;;;;;;4990196;28;20042;-69
2023/01/11 11:58:31;;;;;;;24.42;5.03;;;13.60;99.90;;;;;;4991805;28;20042;-70
2023/01/11 12:00:57;;;;;;;22.75;4.60;;;13.60;99.90;;;;;;4986141;28;20043;-70
2023/01/11 12:03:29;;;;;;;30.60;5.40;;;13.60;99.90;;;;;;4992465;28;20058;-69
2023/01/11 12:06:03;;;;;;;25.90;5.30;;;13.90;99.90;;;;;;5007982;28;20042;-70
2023/01/11 12:08:31;;;;;;;26.02;4.97;;;13.70;99.90;;;;;;4991674;28;20126;-69
2023/01/11 12:11:00;;;;;;;35.17;6.38;;;13.70;99.90;;;;;;4990876;28;20097;-69
2023/01/11 12:13:38;;;;;;;25.65;4.65;;;13.60;99.90;;;;;;4990959;28;20042;-69
2023/01/11 12:16:19;;;;;;;36.00;6.75;;;13.50;99.90;;;;;;4991673;28;20133;-69
2023/01/11 12:18:45;;;;;;;31.92;6.25;;;13.50;99.90;;;;;;4991438;28;20056;-70
2023/01/11 12:21:23;;;;;;;38.83;6.38;;;13.90;99.90;;;;;;4974199;28;20380;-70
2023/01/11 12:24:07;;;;;;;40.95;7.18;;;13.50;99.90;;;;;;4991275;28;20134;-70
2023/01/11 12:27:05;;;;;;;37.20;6.75;;;13.30;99.90;;;;;;4991705;28;20046;-69
2023/01/11 12:29:40;;;;;;;38.25;6.45;;;13.40;99.90;;;;;;4972472;28;20046;-69
2023/01/11 12:32:22;;;;;;;40.03;7.18;;;13.40;99.90;;;;;;4991304;28;20042;-70
2023/01/11 12:35:11;;;;;;;49.28;6.28;;;13.20;99.90;;;;;;4988965;28;20081;-70
2023/01/11 12:37:42;;;;;;;45.78;6.80;;;13.30;99.90;;;;;;4986636;28;20042;-69
2023/01/11 12:40:11;;;;;;;37.10;6.28;;;13.20;99.90;;;;;;4981714;28;20139;-70
2023/01/11 12:43:01;;;;;;;37.42;6.82;;;13.20;99.90;;;;;;5010838;28;20042;-70
2023/01/11 12:45:58;;;;;;;41.33;7.05;;;13.20;99.90;;;;;;5006249;28;20488;-70
2023/01/11 12:48:30;;;;;;;;;;;13.20;99.90;;;;;;4985499;28;20038;-70
2023/01/11 12:51:08;;;;;;;28.40;5.40;;;13.40;99.90;;;;;;4994281;28;19926;-70
2023/01/11 12:53:45;;;;;;;39.08;6.78;;;13.50;99.90;;;;;;4994529;28;20046;-70
2023/01/11 12:56:20;;;;;;;34.90;6.07;;;13.30;99.90;;;;;;4983931;28;20047;-69
2023/01/11 12:59:20;;;;;;;34.58;6.22;;;13.40;99.90;;;;;;4975072;28;20408;-70
2023/01/11 13:02:09;;;;;;;46.95;8.05;;;13.40;99.90;;;;;;4953028;28;20132;-69
2023/01/11 13:05:27;;;;;;;32.78;6.40;;;13.30;99.90;;;;;;4974845;28;20058;-69
2023/01/11 13:07:55;;;;;;;43.85;6.50;;;13.20;99.90;;;;;;4916838;28;20114;-70
2023/01/11 13:10:33;;;;;;;37.70;6.20;;;12.90;99.90;;;;;;4976062;28;20054;-69
2023/01/11 13:13:27;;;;;;;33.17;6.22;;;13.00;99.90;;;;;;4974791;28;20129;-69
2023/01/11 13:16:01;;;;;;;40.53;6.93;;;12.90;99.90;;;;;;4975525;28;20159;-69
2023/01/11 13:18:47;;;;;;;47.47;6.70;;;12.80;99.90;;;;;;4994205;28;20103;-70
2023/01/11 13:21:32;;;;;;;39.47;6.72;;;12.90;99.90;;;;;;4991791;28;20117;-69
2023/01/11 13:24:02;;;;;;;46.70;7.13;;;13.00;99.90;;;;;;4994103;28;20062;-69
2023/01/11 13:26:33;;;;;;;41.92;6.45;;;13.10;99.90;;;;;;4993793;28;20048;-69
2023/01/11 13:29:15;;;;;;;41.28;6.57;;;13.00;99.90;;;;;;4995143;28;20038;-69
2023/01/11 13:31:43;;;;;;;37.75;6.95;;;13.10;99.90;;;;;;4993790;28;20026;-69
2023/01/11 13:34:33;;;;;;;37.50;5.88;;;13.00;99.90;;;;;;4993565;28;20073;-69